Time;durP1;ratioP1;P1;durP2;ratioP2;P2;SDS_P1;SDS_P2;PMS_P1;PMS_P2;Temp;Humidity;BMP_temperature;BMP_pressure;BME280_temperature;BME280_humidity;BME280_pressure;Samples;Min_cycle;Max_cycle;Signal;HPM_P1;HPM_P2
2023/10/15 00:00:50;;;;;;;5.20;2.83;;;7.90;99.90;;;;;;4992900;28;20447;-66
2023/10/15 00:03:16;;;;;;;5.63;3.80;;;7.90;99.90;;;;;;4992363;28;20840;-64
2023/10/15 00:05:41;;;;;;;4.77;3.03;;;7.90;99.90;;;;;;4991826;28;20439;-63
2023/10/15 00:08:07;;;;;;;3.80;2.47;;;7.90;99.90;;;;;;4992571;28;20425;-64
2023/10/15 00:10:34;;;;;;;4.17;2.90;;;7.90;99.90;;;;;;4992596;28;20577;-64
2023/10/15 00:13:00;;;;;;;5.97;3.40;;;7.90;99.90;;;;;;4992437;28;20172;-63
2023/10/15 00:15:30;;;;;;;2.63;2.30;;;7.90;99.90;;;;;;4992650;28;20419;-64
2023/10/15 00:17:59;;;;;;;3.87;2.77;;;7.80;99.90;;;;;;4992608;28;20172;-64
2023/10/15 00:20:28;;;;;;;2.50;2.27;;;7.80;99.90;;;;;;4990247;28;20569;-64
2023/10/15 00:22:54;;;;;;;7.13;2.70;;;7.80;99.90;;;;;;4990226;28;20462;-63
2023/10/15 00:25:19;;;;;;;5.93;2.60;;;7.80;99.90;;;;;;4996723;28;20411;-63
2023/10/15 00:27:52;;;;;;;4.03;2.83;;;7.80;99.90;;;;;;4996572;28;20633;-64
2023/10/15 00:30:19;;;;;;;2.33;2.10;;;7.80;99.90;;;;;;4996749;28;20188;-63
2023/10/15 00:32:45;;;;;;;5.30;2.67;;;7.80;99.90;;;;;;4996200;28;20415;-65
2023/10/15 00:35:13;;;;;;;5.47;3.13;;;7.90;99.90;;;;;;4987866;28;20439;-64
2023/10/15 00:37:40;;;;;;;3.73;2.23;;;7.90;99.90;;;;;;4996210;28;20426;-65
2023/10/15 00:40:17;;;;;;;4.10;2.30;;;8.00;99.90;;;;;;4996256;28;20794;-64
2023/10/15 00:42:46;;;;;;;5.03;2.60;;;8.10;99.90;;;;;;4995913;28;20456;-64
2023/10/15 00:45:14;;;;;;;2.40;1.93;;;8.20;99.90;;;;;;4996330;28;20829;-64
2023/10/15 00:47:41;;;;;;;2.83;1.83;;;8.30;99.90;;;;;;4996210;28;20499;-64
2023/10/15 00:50:09;;;;;;;3.70;2.27;;;8.40;99.90;;;;;;4995360;28;20462;-63
2023/10/15 00:52:38;;;;;;;2.93;2.47;;;8.40;99.90;;;;;;4996109;28;20427;-64
2023/10/15 00:55:05;;;;;;;5.03;2.53;;;8.50;99.90;;;;;;4996329;28;20418;-64
2023/10/15 00:57:41;;;;;;;3.43;2.53;;;8.50;99.90;;;;;;4995957;28;20505;-64
2023/10/15 01:03:02;;;;;;;5.30;1.97;;;8.40;99.90;;;;;;4994732;28;20481;-64
2023/10/15 01:05:33;;;;;;;3.30;2.07;;;8.40;99.90;;;;;;4993142;28;20990;-64
2023/10/15 01:08:03;;;;;;;3.47;1.93;;;8.40;99.90;;;;;;5005410;28;20481;-64
2023/10/15 01:10:36;;;;;;;2.83;2.47;;;8.50;99.90;;;;;;4994716;28;20812;-63
2023/10/15 01:13:10;;;;;;;5.20;2.67;;;8.60;99.90;;;;;;4994182;28;20427;-64
2023/10/15 01:15:41;;;;;;;8.93;3.77;;;8.60;99.90;;;;;;4995778;28;20419;-64
2023/10/15 01:18:07;;;;;;;5.13;1.80;;;8.70;99.90;;;;;;4987631;28;20470;-63
2023/10/15 01:20:36;;;;;;;2.90;2.20;;;8.70;99.90;;;;;;4994400;28;20978;-64
2023/10/15 01:23:03;;;;;;;2.80;2.20;;;8.80;99.90;;;;;;4995109;28;20725;-63
2023/10/15 01:25:32;;;;;;;4.00;2.10;;;8.80;99.90;;;;;;4995545;28;20851;-63
2023/10/15 01:28:00;;;;;;;5.20;2.30;;;8.80;99.90;;;;;;4995479;28;20418;-64
2023/10/15 01:30:26;;;;;;;5.10;2.00;;;8.80;99.90;;;;;;4995410;28;20437;-65
2023/10/15 01:32:52;;;;;;;2.50;1.63;;;8.80;99.90;;;;;;4988122;28;20467;-65
2023/10/15 01:35:19;;;;;;;2.70;2.03;;;8.80;99.90;;;;;;4992362;28;20854;-64
2023/10/15 01:37:57;;;;;;;3.10;1.97;;;8.80;99.90;;;;;;4995216;28;20168;-64
2023/10/15 01:40:40;;;;;;;2.73;1.80;;;8.80;99.90;;;;;;4995216;28;20463;-64
2023/10/15 01:43:12;;;;;;;4.70;2.03;;;8.80;99.90;;;;;;4986838;28;20499;-63
2023/10/15 01:45:40;;;;;;;2.77;1.67;;;8.90;99.90;;;;;;4995049;28;20418;-63
2023/10/15 01:48:41;;;;;;;3.77;3.47;;;8.90;99.90;;;;;;4993893;28;20430;-63
2023/10/15 01:51:06;;;;;;;3.60;1.93;;;8.90;99.90;;;;;;4993688;28;20478;-64
2023/10/15 01:53:37;;;;;;;2.83;1.90;;;8.90;99.90;;;;;;4994663;28;20507;-63
2023/10/15 01:56:03;;;;;;;3.50;2.30;;;8.90;99.90;;;;;;4994072;28;20469;-64
2023/10/15 01:58:32;;;;;;;3.03;1.90;;;8.90;99.90;;;;;;4994761;28;20990;-63
2023/10/15 02:01:26;;;;;;;6.13;1.80;;;8.90;99.90;;;;;;4994778;28;20447;-63
2023/10/15 02:03:52;;;;;;;2.53;1.57;;;8.90;99.90;;;;;;4994443;28;20442;-64
2023/10/15 02:06:19;;;;;;;2.63;2.00;;;8.90;99.90;;;;;;4993360;28;20415;-64
2023/10/15 02:08:45;;;;;;;4.57;2.30;;;9.00;99.90;;;;;;4994601;28;20251;-64
2023/10/15 02:11:16;;;;;;;4.70;2.30;;;9.00;99.90;;;;;;4989826;28;20451;-64
2023/10/15 02:13:45;;;;;;;3.40;1.90;;;9.10;99.90;;;;;;4985919;28;20453;-63
2023/10/15 02:16:16;;;;;;;3.67;1.97;;;9.10;99.90;;;;;;4994681;28;20439;-64
2023/10/15 02:18:44;;;;;;;2.60;1.57;;;9.10;99.90;;;;;;4994769;28;20935;-64
2023/10/15 02:21:11;;;;;;;5.37;1.90;;;9.10;99.90;;;;;;4994769;28;20478;-65
2023/10/15 02:23:48;;;;;;;3.03;1.80;;;9.20;99.90;;;;;;4994165;28;20533;-63
2023/10/15 02:26:18;;;;;;;4.23;1.83;;;9.20;99.90;;;;;;4985417;28;20450;-63
2023/10/15 02:28:46;;;;;;;5.77;2.30;;;9.30;99.90;;;;;;4994232;28;20419;-63
2023/10/15 02:31:20;;;;;;;2.60;1.90;;;9.30;99.90;;;;;;4994100;28;20914;-63
2023/10/15 02:33:45;;;;;;;3.43;1.90;;;9.30;99.90;;;;;;4984736;28;20439;-63
2023/10/15 02:36:16;;;;;;;2.70;2.17;;;9.30;99.90;;;;;;4994188;28;20915;-64
2023/10/15 02:38:52;;;;;;;8.53;1.93;;;9.30;99.90;;;;;;4994321;28;20318;-63
2023/10/15 02:41:21;;;;;;;5.83;2.57;;;9.30;99.90;;;;;;4994063;28;20474;-63
2023/10/15 02:43:56;;;;;;;2.37;2.10;;;9.20;99.90;;;;;;4993557;28;20997;-64
2023/10/15 02:46:23;;;;;;;3.90;2.27;;;9.20;99.90;;;;;;4992113;28;20528;-64
2023/10/15 02:48:49;;;;;;;4.70;2.10;;;9.20;99.90;;;;;;4987146;28;20979;-64
2023/10/15 02:51:18;;;;;;;4.73;1.83;;;9.20;99.90;;;;;;4993766;28;20524;-65
2023/10/15 02:53:50;;;;;;;4.10;2.37;;;9.30;99.90;;;;;;4993589;28;20418;-64
2023/10/15 02:56:17;;;;;;;5.10;1.90;;;9.30;99.90;;;;;;4993790;28;20427;-64
2023/10/15 02:58:44;;;;;;;3.60;1.73;;;9.30;99.90;;;;;;4993735;28;20425;-64
2023/10/15 03:01:20;;;;;;;4.03;2.67;;;9.30;99.90;;;;;;4992711;28;20461;-65
2023/10/15 03:03:49;;;;;;;4.87;2.37;;;9.40;99.90;;;;;;4993240;28;20494;-64
2023/10/15 03:06:31;;;;;;;4.67;1.73;;;9.40;99.90;;;;;;4993741;28;20477;-64
2023/10/15 03:08:58;;;;;;;3.97;1.77;;;9.40;99.90;;;;;;4993654;28;20398;-64
2023/10/15 03:11:25;;;;;;;4.27;2.13;;;9.40;99.90;;;;;;4993538;28;20525;-64
2023/10/15 03:13:54;;;;;;;4.83;2.00;;;9.40;99.90;;;;;;4993365;28;20430;-65
2023/10/15 03:16:22;;;;;;;3.83;2.10;;;9.50;99.90;;;;;;4984423;28;20959;-64
2023/10/15 03:18:48;;;;;;;4.10;1.87;;;9.50;99.90;;;;;;4987881;28;20535;-64
2023/10/15 03:21:20;;;;;;;6.23;1.60;;;9.50;99.90;;;;;;4989689;28;20462;-65
2023/10/15 03:23:48;;;;;;;6.47;2.90;;;9.50;99.90;;;;;;4991729;28;20985;-64
2023/10/15 03:26:17;;;;;;;3.03;2.10;;;9.40;99.90;;;;;;4993327;28;20419;-64
2023/10/15 03:28:50;;;;;;;3.10;2.13;;;9.40;99.90;;;;;;4993136;28;20426;-64
2023/10/15 03:31:25;;;;;;;3.30;2.13;;;9.30;99.90;;;;;;4989653;28;20437;-65
2023/10/15 03:36:43;;;;;;;8.63;2.13;;;9.40;99.90;;;;;;4993350;28;20431;-63
2023/10/15 03:39:25;;;;;;;5.67;1.60;;;9.40;99.90;;;;;;4993261;28;20429;-64
2023/10/15 03:41:59;;;;;;;4.50;1.80;;;9.30;99.90;;;;;;4992995;28;20998;-64
2023/10/15 03:44:32;;;;;;;3.10;1.90;;;9.30;99.90;;;;;;4983767;28;20542;-64
2023/10/15 03:47:04;;;;;;;4.43;1.60;;;9.30;99.90;;;;;;4992951;28;20916;-64
2023/10/15 03:49:30;;;;;;;3.40;2.00;;;9.40;99.90;;;;;;4992958;28;20814;-64
2023/10/15 03:51:56;;;;;;;3.90;2.20;;;9.40;99.90;;;;;;4992809;28;20418;-64
2023/10/15 03:54:24;;;;;;;5.30;2.20;;;9.40;99.90;;;;;;4992385;28;20771;-64
2023/10/15 03:56:51;;;;;;;2.23;1.63;;;9.40;99.90;;;;;;4992582;28;20911;-64
2023/10/15 03:59:19;;;;;;;3.60;2.27;;;9.40;99.90;;;;;;4983098;28;20439;-64
2023/10/15 04:01:48;;;;;;;4.40;1.90;;;9.40;99.90;;;;;;4983050;28;20485;-63
2023/10/15 04:04:18;;;;;;;5.67;2.07;;;9.40;99.90;;;;;;4992538;28;20503;-64
2023/10/15 04:06:53;;;;;;;4.63;2.10;;;9.30;99.90;;;;;;4992680;28;20422;-65
2023/10/15 04:09:25;;;;;;;4.80;2.30;;;9.40;99.90;;;;;;4992633;28;20414;-64
2023/10/15 04:11:51;;;;;;;3.70;2.20;;;9.30;99.90;;;;;;4991792;28;20437;-63
2023/10/15 04:14:21;;;;;;;2.50;1.87;;;9.40;99.90;;;;;;4994143;28;20422;-64
2023/10/15 04:16:47;;;;;;;11.03;2.50;;;9.50;99.90;;;;;;5002669;28;20201;-64
2023/10/15 04:19:17;;;;;;;7.83;3.37;;;9.40;99.90;;;;;;5009453;28;20931;-65
2023/10/15 04:21:43;;;;;;;2.80;1.83;;;9.40;99.90;;;;;;5008157;28;20221;-65
2023/10/15 04:24:09;;;;;;;7.83;1.80;;;9.40;99.90;;;;;;4990941;28;20497;-64
2023/10/15 04:26:42;;;;;;;3.80;1.77;;;9.50;99.90;;;;;;4988363;28;20531;-66
2023/10/15 04:29:18;;;;;;;2.97;1.80;;;9.60;99.90;;;;;;4977202;28;20822;-65
2023/10/15 04:32:04;;;;;;;5.93;2.30;;;9.60;99.90;;;;;;4991676;28;20442;-66
2023/10/15 04:34:31;;;;;;;5.93;2.17;;;9.70;99.90;;;;;;4991829;28;20446;-64
2023/10/15 04:36:57;;;;;;;3.17;2.20;;;9.70;99.90;;;;;;4992471;28;20419;-64
2023/10/15 04:39:23;;;;;;;3.77;1.90;;;9.70;99.90;;;;;;4992450;28;20419;-64
2023/10/15 04:41:55;;;;;;;2.93;2.20;;;9.70;99.90;;;;;;4992357;28;20411;-66
2023/10/15 04:44:25;;;;;;;3.07;2.03;;;9.70;99.90;;;;;;4991117;28;20488;-65
2023/10/15 04:46:54;;;;;;;5.90;3.90;;;9.70;99.90;;;;;;4992314;28;20419;-64
2023/10/15 04:49:20;;;;;;;2.60;1.80;;;9.70;99.90;;;;;;4992312;28;20423;-64
2023/10/15 04:51:46;;;;;;;3.93;1.90;;;9.60;99.90;;;;;;4992219;28;21010;-65
2023/10/15 04:54:17;;;;;;;5.00;2.63;;;9.50;99.90;;;;;;4991972;28;20160;-65
2023/10/15 04:56:43;;;;;;;5.70;2.20;;;9.40;99.90;;;;;;4992347;28;20172;-64
2023/10/15 04:59:08;;;;;;;4.60;2.50;;;9.40;99.90;;;;;;4991849;28;20819;-65
2023/10/15 05:01:34;;;;;;;3.43;1.93;;;9.30;99.90;;;;;;4982688;28;20203;-64
2023/10/15 05:04:01;;;;;;;3.60;2.33;;;9.40;99.90;;;;;;4991993;28;20171;-64
2023/10/15 05:06:27;;;;;;;8.87;2.73;;;9.30;99.90;;;;;;4992191;28;20232;-65
2023/10/15 05:08:53;;;;;;;3.90;2.20;;;9.20;99.90;;;;;;4995535;28;20463;-65
2023/10/15 05:11:21;;;;;;;4.20;3.00;;;9.20;99.90;;;;;;4995733;28;20188;-65
2023/10/15 05:13:48;;;;;;;5.23;3.10;;;9.10;99.90;;;;;;4995398;28;21006;-65
2023/10/15 05:16:14;;;;;;;5.50;3.30;;;9.00;99.90;;;;;;4994655;28;20438;-65
2023/10/15 05:18:40;;;;;;;4.57;2.00;;;8.90;99.90;;;;;;4987748;28;20905;-65
2023/10/15 05:21:05;;;;;;;3.57;2.20;;;8.90;99.90;;;;;;5007579;23;20570;-67
2023/10/15 05:23:31;;;;;;;5.67;2.80;;;8.80;99.90;;;;;;4975272;28;20853;-68
2023/10/15 05:25:56;;;;;;;7.10;2.20;;;8.80;99.90;;;;;;4976062;28;20251;-67
2023/10/15 05:28:22;;;;;;;6.57;3.67;;;8.80;99.90;;;;;;4975910;28;20176;-68
2023/10/15 05:30:49;;;;;;;3.37;2.80;;;8.80;99.90;;;;;;4975928;28;20200;-67
2023/10/15 05:33:16;;;;;;;3.33;1.83;;;8.80;99.90;;;;;;4974680;28;20191;-67
2023/10/15 05:35:49;;;;;;;7.17;2.93;;;8.80;99.90;;;;;;4975851;28;20430;-67
2023/10/15 05:38:16;;;;;;;3.40;2.73;;;8.80;99.90;;;;;;4975859;28;20419;-67
2023/10/15 05:40:44;;;;;;;3.27;2.30;;;8.70;99.90;;;;;;4975728;28;20462;-67
2023/10/15 05:43:10;;;;;;;4.43;2.37;;;8.70;99.90;;;;;;4975368;28;20487;-68
2023/10/15 05:45:35;;;;;;;6.63;3.17;;;8.70;99.90;;;;;;4975865;28;20443;-67
2023/10/15 05:48:01;;;;;;;2.73;2.53;;;8.70;99.90;;;;;;4975672;28;20520;-67
2023/10/15 05:50:27;;;;;;;3.03;2.60;;;8.80;99.90;;;;;;4972693;28;20200;-67
2023/10/15 05:52:52;;;;;;;13.13;2.83;;;8.70;99.90;;;;;;4966358;28;20447;-68
2023/10/15 05:55:19;;;;;;;3.70;3.00;;;8.80;99.90;;;;;;4975469;28;20176;-67
2023/10/15 05:57:48;;;;;;;4.67;3.30;;;8.80;99.90;;;;;;4974673;28;20214;-67
2023/10/15 06:00:26;;;;;;;6.50;2.73;;;8.90;99.90;;;;;;4948138;28;21044;-67
2023/10/15 06:02:52;;;;;;;3.73;2.63;;;8.90;99.90;;;;;;4975024;28;20452;-68
2023/10/15 06:05:18;;;;;;;3.00;2.30;;;8.90;99.90;;;;;;4975342;28;20955;-68
2023/10/15 06:07:44;;;;;;;5.03;2.50;;;9.00;99.90;;;;;;4972583;28;20534;-67
2023/10/15 06:10:11;;;;;;;3.60;2.50;;;9.10;99.90;;;;;;4967136;28;20278;-67
2023/10/15 06:12:37;;;;;;;6.33;2.50;;;9.10;99.90;;;;;;4973002;28;20458;-67
2023/10/15 06:15:04;;;;;;;5.90;2.33;;;9.10;99.90;;;;;;4972315;28;20440;-67
2023/10/15 06:17:30;;;;;;;8.70;2.60;;;9.10;99.90;;;;;;4970926;28;20462;-67
2023/10/15 06:19:55;;;;;;;3.80;2.70;;;9.20;99.90;;;;;;4968872;28;20940;-67
2023/10/15 06:22:21;;;;;;;6.30;3.30;;;9.20;99.90;;;;;;4974985;28;20448;-67
2023/10/15 06:24:46;;;;;;;7.90;2.50;;;9.20;99.90;;;;;;4974896;28;20698;-67
2023/10/15 06:27:15;;;;;;;7.30;2.53;;;9.20;99.90;;;;;;4974958;28;20175;-68
2023/10/15 06:29:41;;;;;;;6.07;2.43;;;9.20;99.90;;;;;;4975048;28;20537;-67
2023/10/15 06:32:06;;;;;;;4.93;2.53;;;9.30;99.90;;;;;;4973846;28;20459;-67
2023/10/15 06:34:32;;;;;;;4.90;3.60;;;9.40;99.90;;;;;;4974429;28;20180;-68
2023/10/15 06:36:58;;;;;;;6.37;3.10;;;9.40;99.90;;;;;;4974679;28;20169;-67
2023/10/15 06:39:23;;;;;;;3.47;2.90;;;9.40;99.90;;;;;;4974757;28;20447;-67
2023/10/15 06:41:49;;;;;;;5.50;3.30;;;9.50;99.90;;;;;;4974467;28;20615;-68
2023/10/15 06:44:16;;;;;;;2.90;2.70;;;9.50;99.90;;;;;;4970572;28;20184;-67
2023/10/15 06:46:41;;;;;;;3.40;3.00;;;9.50;99.90;;;;;;4960648;28;20244;-68
2023/10/15 06:49:09;;;;;;;6.53;3.37;;;9.40;99.90;;;;;;4970341;28;20427;-67
2023/10/15 06:51:35;;;;;;;11.43;4.40;;;9.40;99.90;;;;;;4974401;28;20248;-67
2023/10/15 06:54:01;;;;;;;3.40;2.93;;;9.30;99.90;;;;;;4973654;28;20427;-67
2023/10/15 06:56:27;;;;;;;10.10;5.13;;;9.40;99.90;;;;;;4973929;28;20219;-67
2023/10/15 06:58:52;;;;;;;7.73;3.90;;;9.50;99.90;;;;;;4974280;28;20172;-67
2023/10/15 07:01:18;;;;;;;7.23;4.27;;;9.60;99.90;;;;;;4956988;28;20439;-67
2023/10/15 07:03:44;;;;;;;8.53;4.33;;;9.70;99.90;;;;;;4973930;28;20257;-67
2023/10/15 07:06:09;;;;;;;5.00;3.70;;;9.80;99.90;;;;;;4974194;28;20279;-67
2023/10/15 07:08:35;;;;;;;5.97;4.07;;;9.70;99.90;;;;;;4973289;28;20660;-68
2023/10/15 07:11:01;;;;;;;5.80;3.87;;;9.60;99.90;;;;;;4974090;28;20682;-67
2023/10/15 07:13:26;;;;;;;11.43;4.20;;;9.60;99.90;;;;;;4973753;28;20184;-67
2023/10/15 07:15:52;;;;;;;11.63;5.60;;;9.60;99.90;;;;;;4974074;28;20179;-67
2023/10/15 07:18:18;;;;;;;6.17;5.57;;;9.70;99.90;;;;;;4974018;28;20188;-68
2023/10/15 07:20:44;;;;;;;10.10;4.37;;;10.00;99.90;;;;;;4973601;28;20459;-68
2023/10/15 07:23:10;;;;;;;9.27;4.20;;;10.20;99.90;;;;;;4972661;28;20854;-67
2023/10/15 07:25:35;;;;;;;9.53;5.63;;;10.40;99.90;;;;;;4973992;28;20534;-68
2023/10/15 07:28:02;;;;;;;4.70;4.30;;;10.70;99.90;;;;;;4973784;28;20172;-68
2023/10/15 07:30:28;;;;;;;6.90;6.03;;;10.90;99.90;;;;;;4972999;28;20629;-67
2023/10/15 07:32:57;;;;;;;6.60;4.63;;;11.00;99.90;;;;;;4973474;28;20424;-68
2023/10/15 07:35:25;;;;;;;5.80;4.33;;;11.30;99.90;;;;;;4973646;28;20971;-68
2023/10/15 07:37:52;;;;;;;6.90;4.20;;;11.60;99.90;;;;;;4973693;28;20431;-67
2023/10/15 07:40:21;;;;;;;7.60;4.83;;;11.70;99.90;;;;;;4971087;28;20451;-68
2023/10/15 07:42:53;;;;;;;9.33;7.07;;;11.70;99.90;;;;;;4965309;28;20449;-67
2023/10/15 07:45:26;;;;;;;6.13;5.57;;;12.00;99.90;;;;;;4965345;28;20427;-68
2023/10/15 07:47:52;;;;;;;5.67;4.80;;;12.60;99.90;;;;;;4973484;28;21109;-68
2023/10/15 07:50:18;;;;;;;5.70;3.83;;;13.10;99.90;;;;;;4973360;28;20458;-67
2023/10/15 07:52:44;;;;;;;7.17;4.30;;;13.50;99.90;;;;;;4973216;28;20451;-67
2023/10/15 07:55:13;;;;;;;8.43;4.83;;;13.40;99.90;;;;;;4973440;28;20176;-67
2023/10/15 07:57:39;;;;;;;5.80;4.07;;;13.70;99.90;;;;;;4968348;28;20527;-68
2023/10/15 08:00:06;;;;;;;7.97;3.60;;;14.00;99.90;;;;;;4968784;28;20961;-67
2023/10/15 08:02:32;;;;;;;5.13;3.50;;;14.20;99.90;;;;;;4973023;28;20219;-69
2023/10/15 08:04:58;;;;;;;3.47;3.17;;;15.00;99.90;;;;;;4973170;28;20448;-68
2023/10/15 08:07:24;;;;;;;5.67;3.60;;;15.40;99.90;;;;;;4973296;28;20509;-68
2023/10/15 08:09:52;;;;;;;5.33;2.73;;;15.70;99.90;;;;;;4955885;28;20176;-68
2023/10/15 08:12:18;;;;;;;9.33;1.73;;;16.00;99.90;;;;;;4964268;28;20177;-68
2023/10/15 08:14:45;;;;;;;4.83;2.27;;;16.60;99.90;;;;;;4973032;28;20449;-68
2023/10/15 08:17:12;;;;;;;2.50;2.00;;;16.90;99.90;;;;;;4973266;28;20175;-69
2023/10/15 08:19:38;;;;;;;4.73;2.03;;;16.90;99.90;;;;;;4973330;28;20418;-69
2023/10/15 08:22:03;;;;;;;4.00;2.07;;;17.70;99.90;;;;;;4972960;28;20840;-69
2023/10/15 08:24:29;;;;;;;5.23;2.67;;;18.40;99.90;;;;;;4972994;28;20188;-68
2023/10/15 08:26:54;;;;;;;5.33;1.70;;;18.40;99.90;;;;;;4973313;28;20553;-68
2023/10/15 08:29:20;;;;;;;4.53;2.63;;;19.60;98.40;;;;;;4972120;28;20184;-69
2023/10/15 08:31:47;;;;;;;5.00;3.40;;;19.90;97.10;;;;;;4973008;28;20801;-68
2023/10/15 08:34:12;;;;;;;3.77;2.53;;;19.20;96.20;;;;;;4972827;28;20196;-69
2023/10/15 08:36:39;;;;;;;4.73;2.07;;;18.50;97.40;;;;;;4955751;28;20416;-68
2023/10/15 08:39:06;;;;;;;3.60;2.30;;;17.90;98.70;;;;;;4973137;28;20196;-68
2023/10/15 08:41:37;;;;;;;5.50;3.57;;;16.40;99.90;;;;;;4974377;28;20579;-69
2023/10/15 08:44:05;;;;;;;5.30;3.20;;;15.90;99.90;;;;;;4976498;28;20592;-68
2023/10/15 08:46:31;;;;;;;6.37;2.80;;;15.60;99.90;;;;;;4975793;28;20481;-68
2023/10/15 08:49:00;;;;;;;4.10;3.00;;;15.50;99.90;;;;;;4976942;28;20466;-68
2023/10/15 08:51:26;;;;;;;3.03;2.20;;;16.10;99.90;;;;;;4976628;28;20200;-68
2023/10/15 08:53:53;;;;;;;11.20;2.83;;;17.70;99.90;;;;;;4976365;28;20841;-68
2023/10/15 08:56:21;;;;;;;3.10;2.43;;;18.80;99.80;;;;;;4976574;28;20482;-69
2023/10/15 08:58:52;;;;;;;5.00;2.67;;;19.80;95.40;;;;;;4959043;28;20435;-69
2023/10/15 09:01:18;;;;;;;4.77;2.30;;;20.70;93.30;;;;;;4975640;28;20443;-69
2023/10/15 09:03:44;;;;;;;3.43;1.90;;;20.50;90.00;;;;;;4975900;28;20550;-68
2023/10/15 09:06:10;;;;;;;5.37;2.00;;;20.10;87.50;;;;;;4976500;28;20506;-69
2023/10/15 09:08:41;;;;;;;4.80;4.27;;;19.20;90.30;;;;;;4976360;28;20324;-68
2023/10/15 09:11:07;;;;;;;6.37;2.63;;;18.40;92.50;;;;;;4976261;28;20283;-68
2023/10/15 09:13:36;;;;;;;6.87;3.67;;;17.20;94.80;;;;;;4975993;28;20458;-68
2023/10/15 09:16:03;;;;;;;4.40;2.30;;;15.90;99.90;;;;;;4976308;28;20925;-68
2023/10/15 09:18:28;;;;;;;4.93;2.30;;;14.70;99.90;;;;;;4975334;28;20510;-68
2023/10/15 09:20:58;;;;;;;3.17;1.70;;;14.10;99.90;;;;;;4975882;28;20567;-67
2023/10/15 09:23:24;;;;;;;2.33;1.83;;;13.70;99.90;;;;;;4975668;28;20670;-68
2023/10/15 09:25:53;;;;;;;2.60;1.43;;;13.40;99.90;;;;;;4976026;28;20412;-68
2023/10/15 09:28:20;;;;;;;4.13;1.80;;;13.10;99.90;;;;;;4976049;28;20684;-67
2023/10/15 09:30:46;;;;;;;3.23;1.80;;;13.00;99.90;;;;;;4975925;28;20470;-68
2023/10/15 09:33:16;;;;;;;2.67;1.80;;;12.80;99.90;;;;;;4958352;28;20439;-68
2023/10/15 09:35:42;;;;;;;7.10;2.80;;;12.50;99.90;;;;;;4974947;28;20451;-67
2023/10/15 09:38:13;;;;;;;4.03;2.40;;;12.40;99.90;;;;;;4975653;28;21140;-67
2023/10/15 09:40:43;;;;;;;7.87;3.03;;;12.40;99.90;;;;;;4956549;28;20197;-67
2023/10/15 09:43:10;;;;;;;5.70;2.90;;;12.60;99.90;;;;;;4938817;29;20474;-68
2023/10/15 09:45:35;;;;;;;4.73;2.93;;;12.80;99.90;;;;;;4956489;29;20448;-68
2023/10/15 09:48:02;;;;;;;3.20;2.30;;;13.20;99.90;;;;;;4956382;29;20503;-68
2023/10/15 09:50:31;;;;;;;5.80;2.50;;;13.70;99.90;;;;;;4956327;28;20200;-68
2023/10/15 09:53:01;;;;;;;6.93;2.63;;;14.40;99.90;;;;;;4963685;28;20997;-68
2023/10/15 09:55:28;;;;;;;3.20;2.90;;;16.30;99.90;;;;;;4964803;28;20444;-68
2023/10/15 09:57:55;;;;;;;2.80;2.07;;;18.70;99.90;;;;;;4969541;28;20436;-69
2023/10/15 10:00:46;;;;;;;3.33;2.47;;;21.20;95.20;;;;;;4974908;28;20451;-69
2023/10/15 10:03:47;;;;;;;2.90;2.00;;;23.30;80.70;;;;;;4974127;28;20555;-69
2023/10/15 10:06:24;;;;;;;4.30;1.90;;;23.70;70.40;;;;;;4975304;28;20476;-69
2023/10/15 10:09:17;;;;;;;4.67;2.60;;;24.50;65.70;;;;;;4975290;28;20498;-70
2023/10/15 10:12:11;;;;;;;3.97;2.00;;;25.10;58.40;;;;;;4975157;28;20435;-67
2023/10/15 10:14:57;;;;;;;3.80;2.13;;;25.80;52.40;;;;;;4974967;28;20416;-67
2023/10/15 10:17:25;;;;;;;3.10;1.67;;;25.30;50.40;;;;;;4974217;28;20466;-67
2023/10/15 10:19:52;;;;;;;4.50;1.60;;;25.90;49.50;;;;;;4974922;28;20936;-67
2023/10/15 10:22:25;;;;;;;2.73;1.60;;;25.20;48.80;;;;;;4974884;28;21079;-67
2023/10/15 10:24:52;;;;;;;4.17;1.53;;;26.90;47.60;;;;;;4974801;28;20419;-68
2023/10/15 10:27:18;;;;;;;3.60;2.07;;;26.40;45.40;;;;;;4974987;28;20785;-67
2023/10/15 10:29:49;;;;;;;5.50;2.07;;;25.90;44.10;;;;;;4974100;28;20427;-69
2023/10/15 10:32:15;;;;;;;4.37;1.40;;;26.40;43.30;;;;;;4963511;28;20200;-70
2023/10/15 10:34:41;;;;;;;2.23;1.83;;;26.80;40.20;;;;;;4974441;28;20424;-69
2023/10/15 10:37:20;;;;;;;2.73;2.13;;;26.80;41.50;;;;;;4974673;28;20883;-67
2023/10/15 10:39:48;;;;;;;1.43;1.20;;;28.00;38.20;;;;;;4974639;28;20426;-68
2023/10/15 10:42:24;;;;;;;3.53;1.60;;;28.30;36.60;;;;;;4974608;28;20452;-67
2023/10/15 10:44:49;;;;;;;3.67;2.17;;;27.10;36.30;;;;;;4974381;28;20940;-67
2023/10/15 10:47:24;;;;;;;5.30;2.00;;;27.50;37.00;;;;;;4973629;28;20445;-70
2023/10/15 10:49:58;;;;;;;2.23;1.50;;;28.70;34.80;;;;;;4974478;28;20641;-67
2023/10/15 10:52:37;;;;;;;2.37;2.07;;;29.40;34.60;;;;;;4974454;28;20495;-68
2023/10/15 10:55:31;;;;;;;2.20;1.50;;;26.50;34.00;;;;;;4974488;28;20435;-69
2023/10/15 10:57:58;;;;;;;2.50;1.63;;;23.90;37.40;;;;;;4974329;28;20419;-68
2023/10/15 11:00:23;;;;;;;1.97;1.37;;;23.00;39.30;;;;;;4974324;28;20530;-68
2023/10/15 11:02:49;;;;;;;2.07;1.40;;;25.10;37.80;;;;;;4973989;28;20542;-68
2023/10/15 11:05:17;;;;;;;1.67;1.30;;;26.10;35.70;;;;;;4963474;28;20274;-68
2023/10/15 11:07:43;;;;;;;3.00;1.30;;;24.70;34.70;;;;;;4974041;28;20191;-68
2023/10/15 11:10:09;;;;;;;2.40;1.20;;;24.10;36.60;;;;;;4974127;28;20846;-68
2023/10/15 11:12:35;;;;;;;1.87;1.33;;;25.00;36.40;;;;;;4973907;28;20207;-68
2023/10/15 11:15:01;;;;;;;1.20;0.90;;;24.30;36.20;;;;;;4956805;28;20427;-68
2023/10/15 11:17:27;;;;;;;3.93;1.50;;;22.60;38.60;;;;;;4974074;28;20849;-68
2023/10/15 11:19:52;;;;;;;1.53;1.33;;;20.90;42.10;;;;;;4964877;28;20664;-67
2023/10/15 11:22:18;;;;;;;4.07;1.40;;;19.40;43.50;;;;;;4988809;23;20238;-67
2023/10/15 11:24:46;;;;;;;4.30;1.80;;;17.90;50.20;;;;;;4973192;28;20172;-67
2023/10/15 11:27:12;;;;;;;1.90;1.60;;;16.70;52.80;;;;;;4973902;28;20226;-67
2023/10/15 11:29:37;;;;;;;4.93;1.70;;;16.00;59.30;;;;;;4973884;28;20491;-68
2023/10/15 11:32:06;;;;;;;2.40;1.47;;;15.10;65.20;;;;;;4973778;28;20560;-67
2023/10/15 11:34:35;;;;;;;2.70;1.30;;;14.20;73.20;;;;;;4972775;28;20191;-68
2023/10/15 11:37:01;;;;;;;2.73;2.10;;;14.10;79.20;;;;;;4964632;28;20776;-67
2023/10/15 11:39:37;;;;;;;3.17;1.70;;;14.00;81.70;;;;;;4973619;28;20420;-67
2023/10/15 11:42:07;;;;;;;4.57;1.90;;;14.10;86.30;;;;;;4973503;28;20506;-66
2023/10/15 11:44:42;;;;;;;2.13;1.73;;;15.60;80.90;;;;;;4973354;28;20416;-67
2023/10/15 11:47:16;;;;;;;2.70;1.70;;;19.10;62.60;;;;;;4973651;28;20430;-68
2023/10/15 11:49:42;;;;;;;1.50;1.40;;;21.00;51.60;;;;;;4968839;28;20436;-68
2023/10/15 11:52:12;;;;;;;5.93;2.83;;;19.90;52.10;;;;;;4969225;28;20498;-67
2023/10/15 11:54:43;;;;;;;3.00;2.17;;;19.00;53.40;;;;;;4973246;28;20171;-67
2023/10/15 11:57:16;;;;;;;5.30;3.77;;;20.30;52.30;;;;;;4973502;28;20524;-68
2023/10/15 11:59:45;;;;;;;3.13;2.30;;;20.80;48.80;;;;;;4973499;28;20424;-69
2023/10/15 12:02:11;;;;;;;4.90;2.80;;;19.60;50.30;;;;;;4973221;28;20459;-68
2023/10/15 12:04:40;;;;;;;2.50;1.60;;;18.70;52.50;;;;;;4973111;28;20935;-67
2023/10/15 12:07:16;;;;;;;2.80;1.30;;;16.80;56.80;;;;;;4971573;28;20531;-68
2023/10/15 12:09:47;;;;;;;2.87;1.70;;;16.40;59.90;;;;;;4972760;28;20445;-67
2023/10/15 12:12:13;;;;;;;1.73;1.40;;;16.70;61.20;;;;;;4973315;28;20439;-68
2023/10/15 12:14:39;;;;;;;3.93;1.70;;;17.60;58.90;;;;;;4972940;28;20419;-68
2023/10/15 12:17:04;;;;;;;1.90;1.50;;;17.70;57.50;;;;;;4972848;28;20435;-67
2023/10/15 12:19:31;;;;;;;2.67;1.90;;;17.70;58.10;;;;;;4973195;28;20622;-67
2023/10/15 12:21:59;;;;;;;2.57;1.70;;;17.60;58.40;;;;;;4972052;28;20596;-67
2023/10/15 12:24:25;;;;;;;2.87;2.10;;;19.10;56.20;;;;;;4972809;28;20976;-68
2023/10/15 12:26:51;;;;;;;3.80;1.93;;;21.00;50.60;;;;;;4973168;28;20415;-68
2023/10/15 12:29:17;;;;;;;3.93;1.80;;;22.00;48.20;;;;;;4973058;28;20423;-67
2023/10/15 12:31:43;;;;;;;2.57;1.60;;;23.30;45.10;;;;;;4973077;28;20180;-68
2023/10/15 12:34:12;;;;;;;4.67;1.57;;;23.60;43.70;;;;;;4972728;28;20479;-68
2023/10/15 12:36:38;;;;;;;3.47;1.80;;;23.40;42.40;;;;;;4955615;28;20435;-67
2023/10/15 12:39:05;;;;;;;4.83;2.10;;;23.00;42.30;;;;;;4972966;28;20523;-67
2023/10/15 12:41:31;;;;;;;4.30;1.63;;;21.30;43.20;;;;;;4973031;28;20443;-69
2023/10/15 12:44:00;;;;;;;3.50;1.80;;;20.00;45.70;;;;;;4972685;28;20482;-66
2023/10/15 12:46:26;;;;;;;1.67;1.40;;;18.40;48.60;;;;;;4972997;28;20701;-69
2023/10/15 12:48:52;;;;;;;3.00;1.60;;;17.20;52.40;;;;;;4972857;28;20429;-67
2023/10/15 12:51:18;;;;;;;4.13;2.07;;;16.50;58.30;;;;;;4971515;28;20455;-67
2023/10/15 12:53:44;;;;;;;2.70;1.43;;;15.10;73.70;;;;;;4965290;28;20177;-68
2023/10/15 12:56:10;;;;;;;2.40;1.73;;;14.10;91.20;;;;;;4972861;28;20415;-69
2023/10/15 12:58:36;;;;;;;2.40;1.63;;;13.70;95.30;;;;;;4972860;28;20168;-68
2023/10/15 13:01:01;;;;;;;3.73;1.50;;;16.40;90.80;;;;;;4973030;28;20540;-66
2023/10/15 13:03:28;;;;;;;3.10;1.63;;;20.90;64.20;;;;;;4972500;28;20350;-67
2023/10/15 13:05:54;;;;;;;1.60;1.40;;;23.50;49.50;;;;;;4972026;28;20183;-67